Time;durP1;ratioP1;P1;durP2;ratioP2;P2;SDS_P1;SDS_P2;PMS_P1;PMS_P2;Temp;Humidity;BMP_temperature;BMP_pressure;BME280_temperature;BME280_humidity;BME280_pressure;Samples;Min_cycle;Max_cycle;Signal;HPM_P1;HPM_P2
2021/11/17 02:26:38;;;;;;;;;9.25;7.00;;;;;21.25;38.07;101753.63;4972583;28;51352;-48
2021/11/17 02:29:24;;;;;;;;;9.00;7.50;;;;;21.24;38.16;101747.25;4954837;28;51007;-45
2021/11/17 02:32:19;;;;;;;;;11.25;9.50;;;;;21.23;38.31;101751.06;4962096;28;50911;-46
2021/11/17 02:34:57;;;;;;;;;8.50;8.25;;;;;21.22;38.45;101735.59;4958515;28;51239;-42
2021/11/17 02:37:31;;;;;;;;;10.00;7.75;;;;;21.22;38.10;101738.34;4965811;28;52872;-44
2021/11/17 02:40:08;;;;;;;;;13.50;9.00;;;;;21.22;38.30;101737.50;4962856;28;51152;-41
2021/11/17 02:42:43;;;;;;;;;13.25;9.00;;;;;21.21;38.81;101733.91;4960448;28;51084;-43
2021/11/17 02:45:16;;;;;;;;;8.75;6.25;;;;;21.21;38.48;101722.03;4964089;28;51361;-44
2021/11/17 02:48:04;;;;;;;;;8.50;7.75;;;;;21.20;38.39;101712.06;4962552;28;51800;-46
2021/11/17 02:50:57;;;;;;;;;9.75;7.00;;;;;21.19;38.57;101724.16;4966555;28;51464;-46
2021/11/17 02:54:05;;;;;;;;;7.75;6.25;;;;;21.17;38.35;101729.88;4965265;28;51231;-46
2021/11/17 02:56:54;;;;;;;;;12.50;8.75;;;;;21.17;38.36;101738.13;4976179;28;51119;-41
2021/11/17 02:59:50;;;;;;;;;11.50;8.50;;;;;21.17;38.75;101742.81;4959352;28;51158;-50
2021/11/17 03:02:27;;;;;;;;;7.75;7.25;;;;;21.17;38.41;101748.31;4960913;28;51701;-43
2021/11/17 03:05:11;;;;;;;;;11.75;8.75;;;;;21.16;38.57;101746.63;4971610;28;51081;-43
2021/11/17 03:07:42;;;;;;;;;10.25;8.25;;;;;21.14;38.87;101749.53;4961532;28;52292;-40
2021/11/17 03:10:15;;;;;;;;;7.50;7.00;;;;;21.14;38.66;101751.44;4965436;28;51897;-42
2021/11/17 03:13:12;;;;;;;;;11.50;8.00;;;;;21.12;38.53;101746.16;4957732;28;51251;-43
2021/11/17 03:15:49;;;;;;;;;11.25;9.50;;;;;21.12;38.81;101754.41;4960403;28;51350;-41
2021/11/17 03:18:31;;;;;;;;;10.75;9.75;;;;;21.13;38.68;101761.63;4968941;28;51280;-41
2021/11/17 03:21:11;;;;;;;;;12.25;9.00;;;;;21.10;38.78;101773.06;4966964;28;51822;-44
2021/11/17 03:24:02;;;;;;;;;11.75;10.50;;;;;21.10;38.48;101772.22;4966089;28;51119;-42
2021/11/17 03:26:39;;;;;;;;;5.25;5.25;;;;;21.09;38.66;101787.88;4967636;28;51191;-41
2021/11/17 03:29:21;;;;;;;;;9.25;7.25;;;;;21.09;38.86;101787.03;4960036;28;51045;-42
2021/11/17 03:32:01;;;;;;;;;9.00;9.00;;;;;21.08;38.79;101788.94;4965873;28;51128;-41
2021/11/17 03:34:35;;;;;;;;;14.00;8.75;;;;;21.07;38.67;101790.00;4966623;28;51341;-42
2021/11/17 03:37:23;;;;;;;;;7.75;7.25;;;;;21.07;38.84;101798.28;4970391;28;51121;-42
2021/11/17 03:40:02;;;;;;;;;7.75;7.75;;;;;21.07;38.83;101803.78;4959276;28;51282;-43
2021/11/17 03:42:50;;;;;;;;;6.50;5.75;;;;;21.07;38.84;101801.03;4969678;28;52087;-42
2021/11/17 03:45:30;;;;;;;;;10.50;7.75;;;;;21.05;38.67;101803.13;4961129;28;51572;-42
2021/11/17 03:48:26;;;;;;;;;10.50;8.50;;;;;21.04;38.92;101796.75;4965654;28;51041;-42
2021/11/17 03:51:12;;;;;;;;;10.50;8.25;;;;;21.03;38.82;101797.81;4962713;28;51203;-43
2021/11/17 03:53:56;;;;;;;;;10.50;9.25;;;;;21.03;38.83;101814.34;4971433;28;51957;-41
2021/11/17 03:56:40;;;;;;;;;8.75;7.00;;;;;21.03;38.91;101810.72;4966919;28;51404;-41
2021/11/17 03:59:31;;;;;;;;;13.75;9.00;;;;;21.01;38.71;101812.84;4966394;28;51599;-41
2021/11/17 04:02:05;;;;;;;;;9.25;8.00;;;;;21.02;39.11;101809.03;4969143;28;51182;-41
2021/11/17 04:04:55;;;;;;;;;9.25;8.50;;;;;21.00;38.80;101812.00;4964279;28;51923;-43
2021/11/17 04:07:32;;;;;;;;;12.00;9.00;;;;;20.99;38.63;101806.69;4967391;28;51495;-40
2021/11/17 04:10:11;;;;;;;;;7.25;7.00;;;;;20.99;39.11;101813.06;4966610;28;51235;-41
2021/11/17 04:12:48;;;;;;;;;8.00;6.75;;;;;20.98;39.12;101819.63;4966431;28;51119;-41
2021/11/17 04:15:26;;;;;;;;;8.75;8.75;;;;;20.99;38.86;101820.47;4968751;28;51129;-41
2021/11/17 04:18:12;;;;;;;;;8.75;8.00;;;;;20.98;38.91;101825.13;4965208;28;51042;-41
2021/11/17 04:20:43;;;;;;;;;10.50;8.75;;;;;20.98;38.78;101835.28;4964805;28;51300;-41
2021/11/17 04:23:15;;;;;;;;;12.00;9.00;;;;;20.97;39.16;101831.69;4963447;28;51083;-42
2021/11/17 04:26:18;;;;;;;;;6.25;4.75;;;;;20.96;38.93;101838.25;4964443;28;51730;-41
2021/11/17 04:28:50;;;;;;;;;6.25;6.25;;;;;20.95;39.10;101836.56;4966165;28;51357;-40
2021/11/17 04:31:43;;;;;;;;;9.25;8.25;;;;;20.95;38.76;101847.56;4964310;28;51291;-44
2021/11/17 04:34:42;;;;;;;;;9.50;7.25;;;;;20.95;39.21;101843.97;4958635;28;51146;-41
2021/11/17 04:37:22;;;;;;;;;8.25;7.00;;;;;20.94;39.15;101842.25;4961887;28;53033;-44
2021/11/17 04:39:53;;;;;;;;;13.25;8.50;;;;;20.93;39.23;101843.28;4963534;28;51690;-44
2021/11/17 04:42:25;;;;;;;;;8.25;6.75;;;;;20.92;39.05;101847.09;4969855;28;51172;-46
2021/11/17 04:45:12;;;;;;;;;9.25;7.25;;;;;20.92;39.29;101847.94;4965862;28;51431;-45
2021/11/17 04:47:46;;;;;;;;;7.50;7.50;;;;;20.93;39.21;101857.06;4960652;28;51847;-46
2021/11/17 04:50:30;;;;;;;;;8.00;7.75;;;;;20.90;39.17;101843.72;4970798;28;51530;-46
2021/11/17 04:53:17;;;;;;;;;9.25;8.50;;;;;20.91;39.06;101848.16;4963700;28;51034;-46
2021/11/17 04:55:55;;;;;;;;;7.50;6.00;;;;;20.89;39.05;101850.28;4963928;28;51013;-48
2021/11/17 04:58:20;;;;;;;;;8.00;7.25;;;;;20.89;39.02;101848.38;4983223;27;52056;-43
2021/11/17 05:00:51;;;;;;;;;7.75;7.50;;;;;20.88;39.45;101849.41;4962746;28;51165;-45
2021/11/17 05:03:37;;;;;;;;;10.00;6.00;;;;;20.89;39.03;101839.25;4964176;28;51137;-44
2021/11/17 05:06:08;;;;;;;;;12.75;8.25;;;;;20.88;38.92;101840.31;4990324;28;51108;-44
2021/11/17 05:09:00;;;;;;;;;8.75;8.00;;;;;20.87;39.29;101841.38;4965842;28;51274;-47
2021/11/17 05:11:51;;;;;;;;;10.00;8.00;;;;;20.87;39.49;101842.22;4956680;28;51487;-42
2021/11/17 05:14:53;;;;;;;;;8.50;7.25;;;;;20.86;39.44;101846.03;4966666;28;51109;-46
2021/11/17 05:17:27;;;;;;;;;8.00;8.00;;;;;20.85;39.25;101844.31;4964024;28;51272;-44
2021/11/17 05:20:03;;;;;;;;;8.25;7.00;;;;;20.85;39.23;101846.22;4962713;28;51084;-44
2021/11/17 05:22:47;;;;;;;;;8.00;7.75;;;;;20.85;39.12;101846.22;4961918;28;51148;-46
2021/11/17 05:25:18;;;;;;;;;8.00;6.00;;;;;20.84;39.50;101844.50;4969222;28;51125;-45
2021/11/17 05:28:10;;;;;;;;;6.75;6.00;;;;;20.83;39.27;101840.91;4966393;28;51467;-46
2021/11/17 05:30:38;;;;;;;;;7.25;5.75;;;;;20.83;39.17;101840.91;4964704;28;52032;-42
2021/11/17 05:33:09;;;;;;;;;7.50;5.25;;;;;20.83;39.40;101845.56;4957384;28;50967;-48
2021/11/17 05:35:47;;;;;;;;;9.00;8.25;;;;;20.82;39.73;101839.19;4962402;28;50978;-44
2021/11/17 05:38:34;;;;;;;;;6.50;6.00;;;;;20.82;39.82;101832.84;4964806;28;51064;-44
2021/11/17 05:41:15;;;;;;;;;6.00;5.25;;;;;20.80;39.17;101848.72;4964781;28;51684;-44
2021/11/17 05:44:01;;;;;;;;;6.25;6.25;;;;;20.80;39.25;101845.97;4957868;28;52363;-43
2021/11/17 05:46:48;;;;;;;;;12.00;9.75;;;;;20.78;39.14;101843.41;4982442;28;51180;-42
2021/11/17 05:49:19;;;;;;;;;13.50;9.50;;;;;20.79;39.41;101855.28;4968358;28;51081;-46
2021/11/17 05:51:55;;;;;;;;;11.50;9.00;;;;;20.77;39.14;101843.63;4964550;28;51984;-42
2021/11/17 05:54:26;;;;;;;;;11.75;9.75;;;;;20.77;39.58;101851.88;4961957;28;51302;-41
2021/11/17 05:56:52;;;;;;;;;14.00;11.75;;;;;20.75;39.38;101839.16;4964733;28;51133;-41
2021/11/17 05:59:33;;;;;;;;;16.00;13.75;;;;;20.75;39.30;101841.06;4961886;28;51130;-47
2021/11/17 06:02:07;;;;;;;;;18.25;14.00;;;;;20.73;39.22;101837.63;4961706;28;51998;-44
2021/11/17 06:04:33;;;;;;;;;15.50;11.00;;;;;20.72;39.56;101841.44;4962246;28;51490;-48
2021/11/17 06:06:59;;;;;;;;;14.00;12.00;;;;;20.71;39.53;101837.84;4964956;28;50879;-47
2021/11/17 06:09:24;;;;;;;;;15.50;14.75;;;;;20.71;39.64;101839.75;4963402;27;51196;-45
2021/11/17 06:12:00;;;;;;;;;20.00;15.67;;;;;20.70;39.61;101829.78;4956434;28;54506;-43
2021/11/17 06:14:35;;;;;;;;;13.50;12.25;;;;;20.69;39.65;101828.94;4958957;28;51397;-43
2021/11/17 06:17:08;;;;;;;;;9.00;9.00;;;;;20.69;39.73;101839.09;4962408;28;51231;-42
2021/11/17 06:19:39;;;;;;;;;15.25;12.50;;;;;20.66;39.78;101837.59;4966538;28;51114;-46
2021/11/17 06:22:06;;;;;;;;;19.25;16.75;;;;;20.66;39.81;101817.50;4965238;28;51767;-46
2021/11/17 06:24:33;;;;;;;;;16.25;12.25;;;;;20.65;39.54;101818.53;4963165;28;51443;-45
2021/11/17 06:26:59;;;;;;;;;18.00;15.00;;;;;20.63;39.89;101829.72;4988116;28;51823;-43
2021/11/17 06:29:37;;;;;;;;;15.75;14.00;;;;;20.63;39.65;101829.72;4967475;28;50961;-43
2021/11/17 06:32:04;;;;;;;;;17.00;15.00;;;;;20.61;39.68;101831.84;4960958;28;51202;-41
2021/11/17 06:34:29;;;;;;;;;17.75;13.25;;;;;20.61;39.66;101842.00;4970543;28;51191;-43
2021/11/17 06:36:57;;;;;;;;;16.75;16.50;;;;;20.59;39.92;101831.19;4963164;28;51458;-43
2021/11/17 06:39:23;;;;;;;;;16.25;15.50;;;;;20.58;39.64;101832.25;4955165;28;51124;-44
2021/11/17 06:41:49;;;;;;;;;18.25;14.00;;;;;20.57;39.70;101840.69;4956435;28;52028;-42
2021/11/17 06:44:14;;;;;;;;;20.25;16.50;;;;;20.56;39.64;101828.00;4956905;28;51198;-46
2021/11/17 06:46:40;;;;;;;;;16.50;14.25;;;;;20.55;40.05;101837.31;4960614;28;51046;-46
2021/11/17 06:49:05;;;;;;;;;13.75;12.00;;;;;20.54;39.79;101841.97;4966688;28;51323;-42
2021/11/17 06:51:31;;;;;;;;;15.00;15.00;;;;;20.53;39.64;101845.75;4960207;28;51209;-44
2021/11/17 06:53:56;;;;;;;;;12.00;11.50;;;;;20.52;40.01;101855.03;4964202;28;51345;-42
2021/11/17 06:56:22;;;;;;;;;16.75;13.75;;;;;20.53;40.05;101858.66;4964679;28;51277;-46
2021/11/17 06:58:47;;;;;;;;;15.00;10.25;;;;;20.52;39.98;101857.78;4959479;28;51145;-45
2021/11/17 07:01:13;;;;;;;;;14.50;11.25;;;;;20.52;40.28;101862.44;4959380;28;51275;-42
2021/11/17 07:03:39;;;;;;;;;12.75;10.00;;;;;20.53;40.14;101867.78;4963438;28;51208;-45
2021/11/17 07:06:05;;;;;;;;;13.00;8.50;;;;;20.53;39.93;101877.91;4957966;28;51137;-44
2021/11/17 07:08:30;;;;;;;;;13.00;11.50;;;;;20.53;40.21;101878.78;4962541;28;51107;-44
2021/11/17 07:10:55;;;;;;;;;11.50;9.00;;;;;20.54;40.41;101897.00;4971712;28;51874;-47
2021/11/17 07:13:21;;;;;;;;;7.50;7.00;;;;;20.56;40.53;101903.16;4974263;28;51111;-48
2021/11/17 07:15:46;;;;;;;;;13.00;8.25;;;;;20.57;40.88;101896.59;4961325;28;51160;-44
2021/11/17 07:18:12;;;;;;;;;35.50;20.50;;;;;20.59;41.44;101907.41;4978240;28;51971;-45
2021/11/17 07:20:39;;;;;;;;;25.75;15.50;;;;;20.63;41.45;101900.47;4962373;28;51070;-46
2021/11/17 07:23:06;;;;;;;;;21.00;15.25;;;;;20.66;41.71;101905.59;4954710;28;51332;-44
2021/11/17 07:25:31;;;;;;;;;18.50;13.25;;;;;20.70;41.33;101917.91;4959978;28;51215;-46
2021/11/17 07:27:57;;;;;;;;;18.50;10.75;;;;;20.71;41.11;101917.69;4993720;28;51094;-43
2021/11/17 07:30:26;;;;;;;;;8.00;7.75;;;;;20.74;40.95;101922.81;4960024;28;51952;-43
2021/11/17 07:32:52;;;;;;;;;11.50;7.25;;;;;20.73;40.97;101921.09;4964769;28;51260;-42
2021/11/17 07:35:22;;;;;;;;;13.00;9.75;;;;;20.75;41.35;101927.28;4964552;28;51859;-44
2021/11/17 07:37:48;;;;;;;;;12.00;10.50;;;;;20.75;41.40;101934.69;4956899;28;51092;-42
2021/11/17 07:40:14;;;;;;;;;8.50;8.00;;;;;20.76;40.85;101944.66;4964655;28;51102;-48
2021/11/17 07:42:41;;;;;;;;;10.00;6.25;;;;;20.77;41.01;101946.34;4961974;28;51364;-46
2021/11/17 07:45:13;;;;;;;;;9.25;7.00;;;;;20.77;40.61;101945.50;4959252;28;51524;-44
2021/11/17 07:47:38;;;;;;;;;6.75;6.00;;;;;20.77;40.71;101951.84;4962061;28;51162;-46
2021/11/17 07:50:06;;;;;;;;;8.25;7.00;;;;;20.78;40.61;101955.47;4961991;28;51627;-47
2021/11/17 07:52:32;;;;;;;;;9.25;7.00;;;;;20.77;40.93;101946.34;4957185;28;51476;-46
2021/11/17 07:54:58;;;;;;;;;7.50;6.25;;;;;20.75;41.23;101946.56;4956294;28;51583;-50
2021/11/17 07:57:23;;;;;;;;;12.00;11.00;;;;;20.78;41.26;101942.53;4959008;28;51243;-44
2021/11/17 07:59:48;;;;;;;;;9.75;8.00;;;;;20.79;41.22;101943.41;4959024;28;52424;-43
2021/11/17 08:02:14;;;;;;;;;15.25;10.25;;;;;20.81;41.47;101946.78;4965996;28;51157;-47
2021/11/17 08:04:41;;;;;;;;;8.50;8.50;;;;;20.82;41.55;101952.09;4960141;28;50922;-46
2021/11/17 08:07:14;;;;;;;;;9.25;7.75;;;;;20.82;41.34;101945.75;4977204;28;51272;-45
2021/11/17 08:09:43;;;;;;;;;10.50;8.25;;;;;20.84;40.85;101949.16;4988051;28;52950;-45
2021/11/17 08:12:09;;;;;;;;;8.75;7.25;;;;;20.83;41.17;101952.94;4965708;28;51527;-44
2021/11/17 08:14:35;;;;;;;;;12.75;11.25;;;;;20.83;41.29;101956.56;4959355;28;51198;-45
2021/11/17 08:17:01;;;;;;;;;27.50;14.00;;;;;20.84;41.38;101960.16;4971838;27;51366;-45
2021/11/17 08:19:26;;;;;;;;;29.25;17.00;;;;;20.84;41.65;101957.41;4962661;28;50998;-45
2021/11/17 08:21:52;;;;;;;;;27.75;18.75;;;;;20.85;41.64;101948.13;4963015;28;51251;-43
2021/11/17 08:24:18;;;;;;;;;44.25;23.75;;;;;20.86;41.11;101944.31;4962852;28;51733;-45
2021/11/17 08:26:43;;;;;;;;;48.00;26.75;;;;;20.86;41.63;101956.19;4967585;28;51075;-44
2021/11/17 08:29:09;;;;;;;;;36.00;20.50;;;;;20.89;41.42;101965.94;4962122;28;52192;-44
2021/11/17 08:31:35;;;;;;;;;58.00;30.50;;;;;20.88;42.37;101964.25;4969891;28;51041;-49
2021/11/17 08:34:01;;;;;;;;;64.50;37.50;;;;;20.89;42.47;101964.03;4969969;28;51232;-43
2021/11/17 08:36:27;;;;;;;;;72.50;44.75;;;;;20.91;43.04;101967.44;4973456;28;50947;-48
2021/11/17 08:38:54;;;;;;;;;74.00;42.75;;;;;20.93;43.05;101962.59;4964247;28;51893;-49
2021/11/17 08:41:21;;;;;;;;;160.25;69.75;;;;;20.96;43.54;101964.13;4953586;28;51137;-48
2021/11/17 08:43:47;;;;;;;;;161.75;78.50;;;;;21.00;43.38;101968.16;4961477;28;51092;-44
2021/11/17 08:46:12;;;;;;;;;145.50;67.25;;;;;21.00;43.30;101969.00;4963028;28;51295;-46
2021/11/17 08:48:38;;;;;;;;;151.75;73.50;;;;;21.02;42.97;101971.56;4963854;28;52060;-43
2021/11/17 08:51:11;;;;;;;;;145.50;70.00;;;;;21.03;42.75;101976.00;4957618;28;51292;-44
2021/11/17 08:53:39;;;;;;;;;146.00;75.00;;;;;21.04;42.72;101977.72;4962905;28;51150;-42
2021/11/17 08:56:09;;;;;;;;;149.00;65.75;;;;;21.04;42.42;101973.06;4961886;28;51284;-43
2021/11/17 08:58:36;;;;;;;;;132.75;62.25;;;;;21.04;42.50;101974.97;4956446;28;52070;-43
2021/11/17 09:01:02;;;;;;;;;116.00;55.25;;;;;21.06;42.41;101977.53;4963739;28;50912;-42
2021/11/17 09:03:28;;;;;;;;;95.50;51.00;;;;;21.04;41.86;101983.22;4956947;28;51136;-43
2021/11/17 09:05:57;;;;;;;;;71.50;42.25;;;;;21.01;41.83;101984.47;4957381;28;51215;-47
2021/11/17 09:08:24;;;;;;;;;73.25;41.50;;;;;21.01;41.46;101986.38;4988063;28;52869;-45
2021/11/17 09:10:54;;;;;;;;;65.25;38.25;;;;;21.00;41.33;101984.69;4964139;28;51573;-46
2021/11/17 09:13:19;;;;;;;;;63.75;37.75;;;;;21.01;41.88;101983.63;4956339;28;51044;-46
2021/11/17 09:15:47;;;;;;;;;65.25;36.50;;;;;21.00;41.66;101987.44;4965794;28;51314;-46
2021/11/17 09:18:15;;;;;;;;;80.00;47.00;;;;;21.00;42.13;101991.03;4976015;28;52010;-48
2021/11/17 09:20:41;;;;;;;;;71.00;41.75;;;;;21.00;42.31;101991.03;4967501;28;51213;-46
2021/11/17 09:23:09;;;;;;;;;73.25;41.75;;;;;21.01;42.42;101990.00;4962636;28;50920;-46
2021/11/17 09:25:35;;;;;;;;;70.50;40.25;;;;;21.01;42.64;101995.50;4967593;28;51220;-45
2021/11/17 09:28:01;;;;;;;;;72.25;39.75;;;;;21.01;42.18;102000.16;4984568;28;51799;-47
2021/11/17 09:30:29;;;;;;;;;51.50;31.25;;;;;21.02;42.28;101993.59;4954658;28;51107;-46
2021/11/17 09:32:59;;;;;;;;;39.75;27.00;;;;;21.01;41.56;102002.91;4964388;28;51523;-47
2021/11/17 09:35:28;;;;;;;;;45.50;26.00;;;;;21.00;41.55;102003.97;4975169;28;51227;-45
2021/11/17 09:37:54;;;;;;;;;32.75;18.75;;;;;20.99;41.57;102005.88;4956467;28;51131;-43
2021/11/17 09:40:27;;;;;;;;;32.25;21.50;;;;;20.97;41.27;101996.09;4962397;28;51138;-43
2021/11/17 09:42:54;;;;;;;;;32.25;17.50;;;;;20.97;41.50;102009.88;4960870;28;51121;-46
2021/11/17 09:45:22;;;;;;;;;25.25;19.00;;;;;20.97;41.97;102012.63;4965014;28;51830;-45
2021/11/17 09:47:49;;;;;;;;;36.75;20.25;;;;;20.96;42.13;102005.44;4956003;28;51959;-43
2021/11/17 09:50:22;;;;;;;;;39.00;20.00;;;;;20.97;42.07;102015.41;4962058;28;51258;-44
2021/11/17 09:52:56;;;;;;;;;40.25;23.75;;;;;20.97;42.61;102019.00;4961817;28;50973;-47
2021/11/17 09:55:26;;;;;;;;;36.00;23.50;;;;;20.99;42.84;102021.56;4960582;28;51051;-42
2021/11/17 09:57:59;;;;;;;;;25.50;15.25;;;;;21.00;42.90;102024.09;4961063;28;51115;-43
2021/11/17 10:00:38;;;;;;;;;45.00;27.50;;;;;21.01;42.54;102030.47;4960744;28;51380;-46
2021/11/17 10:03:26;;;;;;;;;48.00;29.25;;;;;21.01;42.57;102031.31;4960138;28;51151;-44
2021/11/17 10:14:42;;;;;;;;;23.00;15.75;;;;;20.98;42.14;102031.72;4963723;28;51206;-44
2021/11/17 10:17:43;;;;;;;;;12.50;8.00;;;;;20.96;41.97;102042.09;4959302;28;51284;-45
2021/11/17 10:20:08;;;;;;;;;16.75;12.00;;;;;20.95;41.77;102032.13;4964396;28;52814;-42
2021/11/17 10:22:35;;;;;;;;;15.75;9.50;;;;;20.95;42.00;102037.63;4960954;28;51149;-46
2021/11/17 10:25:09;;;;;;;;;14.75;12.25;;;;;20.94;41.94;102038.66;4960283;28;51228;-43
2021/11/17 10:27:35;;;;;;;;;18.25;11.00;;;;;20.93;41.78;102044.38;4973145;28;51010;-43
2021/11/17 10:30:19;;;;;;;;;17.25;14.25;;;;;20.92;41.87;102039.91;4958588;28;52661;-46
2021/11/17 10:33:06;;;;;;;;;15.00;11.50;;;;;20.90;41.93;102037.34;4994031;28;51017;-46
2021/11/17 10:35:36;;;;;;;;;12.75;11.75;;;;;20.90;42.14;102034.59;4960314;28;51219;-46
2021/11/17 10:38:01;;;;;;;;;12.75;10.50;;;;;20.90;41.88;102036.50;4975004;28;51221;-42
2021/11/17 10:40:32;;;;;;;;;15.75;12.50;;;;;20.89;41.78;102034.81;4964277;28;51097;-47
2021/11/17 10:43:01;;;;;;;;;17.50;12.00;;;;;20.89;41.85;102032.03;4958399;28;51126;-49
2021/11/17 10:45:30;;;;;;;;;9.25;7.00;;;;;20.87;41.32;102029.50;4968950;28;51370;-43
2021/11/17 10:47:56;;;;;;;;;13.75;11.50;;;;;20.87;41.80;102037.75;4962193;28;51232;-44
2021/11/17 10:50:35;;;;;;;;;14.25;10.75;;;;;20.86;41.65;102033.31;4955341;27;51137;-42
2021/11/17 10:53:04;;;;;;;;;13.50;8.75;;;;;20.88;42.25;102030.34;4959718;28;51027;-44
2021/11/17 10:55:38;;;;;;;;;11.25;7.25;;;;;20.90;42.74;102028.25;4960993;28;51082;-44
2021/11/17 10:58:07;;;;;;;;;16.00;9.00;;;;;20.91;43.91;102032.69;4960057;28;51273;-44
2021/11/17 11:01:04;;;;;;;;;19.00;16.00;;;;;20.92;44.10;102029.75;4962821;28;51040;-44
2021/11/17 11:03:35;;;;;;;;;22.75;16.75;;;;;20.92;44.62;102031.66;4951296;28;51149;-45
2021/11/17 11:06:06;;;;;;;;;17.00;13.75;;;;;20.93;44.77;102031.44;4952267;28;51164;-47
2021/11/17 11:09:05;;;;;;;;;21.25;13.75;;;;;20.94;44.99;102027.63;4951181;28;51190;-44
2021/11/17 11:11:37;;;;;;;;;30.00;15.50;;;;;20.96;45.40;102032.97;4951921;28;51096;-41
2021/11/17 11:14:35;;;;;;;;;22.50;16.50;;;;;20.97;45.48;102027.25;4951690;28;51287;-43
2021/11/17 11:17:29;;;;;;;;;24.75;19.00;;;;;20.99;44.93;102040.84;4970309;28;51262;-44
2021/11/17 11:20:15;;;;;;;;;24.00;18.00;;;;;21.00;43.38;102026.84;4961686;28;51170;-49
2021/11/17 11:23:02;;;;;;;;;16.25;12.25;;;;;21.01;45.35;102022.19;4960372;28;51786;-45
2021/11/17 11:25:49;;;;;;;;;19.00;13.00;;;;;21.01;44.95;102034.06;4954842;28;51111;-42
2021/11/17 11:28:20;;;;;;;;;17.75;12.00;;;;;21.01;44.76;102022.19;4955191;28;52453;-47
2021/11/17 11:30:48;;;;;;;;;19.00;15.25;;;;;21.00;44.22;102012.25;4965583;28;51248;-43
2021/11/17 11:33:23;;;;;;;;;21.00;13.50;;;;;21.01;43.96;102016.69;4961222;28;51180;-43
2021/11/17 11:36:10;;;;;;;;;16.50;12.00;;;;;21.01;44.15;102008.44;4964539;28;51100;-43
2021/11/17 11:38:38;;;;;;;;;19.25;10.75;;;;;21.00;44.32;102010.31;4973734;28;51150;-43
2021/11/17 11:41:17;;;;;;;;;14.75;12.25;;;;;21.00;44.00;102013.09;4965661;28;51069;-41
2021/11/17 11:43:44;;;;;;;;;20.50;13.00;;;;;21.02;44.25;102018.38;4967070;28;51111;-43
2021/11/17 11:46:27;;;;;;;;;15.00;11.00;;;;;21.03;44.27;102011.81;4965314;28;51129;-41
2021/11/17 11:48:57;;;;;;;;;13.25;9.00;;;;;21.04;44.85;102019.88;4963691;28;51162;-42
2021/11/17 11:51:22;;;;;;;;;16.50;8.75;;;;;21.04;44.66;102014.38;4967728;28;51038;-42
2021/11/17 11:54:12;;;;;;;;;13.67;10.00;;;;;21.04;44.35;102028.16;4959396;28;51784;-41
2021/11/17 11:56:43;;;;;;;;;19.25;14.25;;;;;21.06;45.60;102024.38;4955158;28;51527;-40
2021/11/17 11:59:30;;;;;;;;;23.25;13.50;;;;;21.12;47.42;102024.41;4953727;28;51278;-40
2021/11/17 12:02:14;;;;;;;;;14.00;9.75;;;;;21.23;47.64;102015.63;4962618;28;51071;-40
2021/11/17 12:05:00;;;;;;;;;14.00;11.00;;;;;21.45;48.77;102012.84;4964325;28;52835;-45
2021/11/17 12:07:42;;;;;;;;;15.25;10.50;;;;;21.70;48.96;102004.97;4965285;28;51527;-44
2021/11/17 12:10:23;;;;;;;;;14.25;8.25;;;;;21.89;48.41;102005.09;4983304;28;51022;-46
2021/11/17 12:12:48;;;;;;;;;11.75;7.75;;;;;22.11;48.51;102005.03;4964274;28;51180;-43
2021/11/17 12:15:17;;;;;;;;;12.25;11.00;;;;;22.32;47.86;102002.13;4960903;28;51165;-41
2021/11/17 12:17:43;;;;;;;;;9.00;7.25;;;;;22.51;47.88;102008.78;4962061;28;51273;-41
2021/11/17 12:20:27;;;;;;;;;7.75;7.00;;;;;22.71;47.01;102003.28;4971659;28;51546;-45
2021/11/17 12:22:56;;;;;;;;;13.75;9.50;;;;;22.91;46.17;102001.44;4960161;27;51173;-45
2021/11/17 12:25:25;;;;;;;;;11.00;8.00;;;;;23.10;45.57;102012.72;4959991;28;51128;-46
2021/11/17 12:28:16;;;;;;;;;8.00;7.00;;;;;23.27;45.43;102012.09;4963791;28;51428;-46
2021/11/17 12:30:43;;;;;;;;;6.50;5.75;;;;;23.46;44.98;102007.63;4957148;28;51069;-42
2021/11/17 12:33:16;;;;;;;;;10.00;8.00;;;;;23.64;43.66;102006.97;4963958;28;51149;-43
2021/11/17 12:35:47;;;;;;;;;9.00;7.25;;;;;23.83;43.47;102010.75;4970106;28;51931;-44
2021/11/17 12:38:17;;;;;;;;;8.00;5.50;;;;;23.98;43.07;102011.38;4953260;28;51341;-45
2021/11/17 12:40:50;;;;;;;;;7.00;7.00;;;;;24.14;42.55;102013.63;4954840;28;52543;-44
2021/11/17 12:43:35;;;;;;;;;6.00;6.00;;;;;24.31;41.71;102013.19;4953549;28;51768;-44
2021/11/17 12:46:09;;;;;;;;;6.50;6.00;;;;;24.47;41.44;102009.91;4963463;28;51446;-43
2021/11/17 12:48:43;;;;;;;;;6.75;5.25;;;;;24.61;41.20;102011.53;4959569;28;51124;-44
2021/11/17 12:51:19;;;;;;;;;8.25;7.50;;;;;24.76;40.78;102009.28;4959849;28;50942;-43
2021/11/17 12:53:53;;;;;;;;;22.75;11.75;;;;;24.85;40.35;102020.97;4959906;28;51120;-43
2021/11/17 12:56:30;;;;;;;;;18.25;9.00;;;;;24.85;40.11;102011.81;4982718;28;51043;-43
2021/11/17 12:59:10;;;;;;;;;17.75;9.25;;;;;24.81;40.13;102010.56;4958478;27;51279;-44
2021/11/17 13:01:39;;;;;;;;;16.00;10.00;;;;;24.74;39.73;102007.81;4960175;28;51041;-45
2021/11/17 13:04:22;;;;;;;;;19.25;11.00;;;;;24.68;40.03;102003.16;4954415;28;51195;-43
2021/11/17 13:06:58;;;;;;;;;16.25;11.50;;;;;24.61;40.36;102008.78;4966453;28;51995;-43
2021/11/17 13:09:45;;;;;;;;;13.50;9.50;;;;;24.54;40.36;102004.34;4952891;28;51536;-45
2021/11/17 13:12:16;;;;;;;;;17.75;11.75;;;;;24.44;40.94;101996.50;4960743;28;51135;-43
2021/11/17 13:14:44;;;;;;;;;17.50;9.00;;;;;24.35;41.53;101995.06;4964435;28;51168;-45
2021/11/17 13:17:17;;;;;;;;;24.50;12.25;;;;;24.28;42.12;102005.25;4955838;28;51136;-43
2021/11/17 13:19:46;;;;;;;;;16.75;11.25;;;;;24.21;42.18;102004.47;4955055;28;51176;-47
2021/11/17 13:22:28;;;;;;;;;21.75;13.50;;;;;24.13;42.68;102002.78;4952681;28;52586;-43
2021/11/17 13:25:21;;;;;;;;;13.00;9.25;;;;;24.05;42.68;102011.31;4967654;28;51261;-48
2021/11/17 13:27:48;;;;;;;;;11.50;9.00;;;;;23.98;43.05;102008.59;4972173;28;52853;-44
2021/11/17 13:30:25;;;;;;;;;16.00;10.75;;;;;23.92;43.38;102006.69;4965353;28;51111;-43
2021/11/17 13:32:53;;;;;;;;;25.75;11.25;;;;;23.86;44.38;102018.63;4965107;28;51315;-44
2021/11/17 13:35:35;;;;;;;;;14.75;10.75;;;;;23.80;44.63;102023.13;4959437;28;51154;-45
2021/11/17 13:38:27;;;;;;;;;18.75;11.00;;;;;23.75;45.03;102024.81;4959238;28;52014;-46
2021/11/17 13:41:00;;;;;;;;;17.75;8.00;;;;;23.69;45.58;102031.22;4953071;28;51546;-46
2021/11/17 13:43:27;;;;;;;;;18.25;9.75;;;;;23.65;46.36;102021.66;4962694;28;51186;-45
2021/11/17 13:45:55;;;;;;;;;17.25;10.50;;;;;23.59;46.27;102032.53;4960791;28;51368;-44
2021/11/17 13:48:26;;;;;;;;;14.25;11.50;;;;;23.54;46.17;102032.25;4963566;28;52116;-45
2021/11/17 13:50:53;;;;;;;;;17.50;12.75;;;;;23.51;47.06;102040.16;4953588;28;51308;-46
2021/11/17 13:53:20;;;;;;;;;17.50;10.50;;;;;23.52;47.69;102037.16;4953583;28;51002;-45
2021/11/17 13:55:52;;;;;;;;;15.00;10.50;;;;;23.65;48.29;102039.09;4960352;28;51148;-43
2021/11/17 13:58:18;;;;;;;;;13.25;8.00;;;;;23.83;48.69;102035.66;4951535;28;51903;-47
2021/11/17 14:00:44;;;;;;;;;15.50;9.00;;;;;24.02;48.67;102031.16;4967446;28;51137;-43
2021/11/17 14:03:09;;;;;;;;;10.50;6.75;;;;;24.23;48.37;102027.25;4968396;28;51413;-45
2021/11/17 14:05:39;;;;;;;;;8.25;7.50;;;;;24.43;47.69;102034.44;4960079;28;51015;-48
2021/11/17 14:08:06;;;;;;;;;12.25;8.25;;;;;24.61;47.24;102030.94;4952843;28;51818;-45
2021/11/17 14:10:33;;;;;;;;;15.25;8.00;;;;;24.82;46.83;102037.22;4951797;28;51385;-45
2021/11/17 14:12:59;;;;;;;;;10.50;7.50;;;;;25.01;46.37;102038.97;4952615;28;51015;-43
2021/11/17 14:15:25;;;;;;;;;9.00;7.25;;;;;25.20;45.38;102035.22;4952801;28;51172;-41
2021/11/17 14:17:51;;;;;;;;;7.00;7.00;;;;;25.39;44.57;102038.91;4954509;28;51713;-43
2021/11/17 14:20:16;;;;;;;;;6.00;6.00;;;;;25.54;43.25;102044.13;4959944;28;51077;-44